Time;durP1;ratioP1;P1;durP2;ratioP2;P2;SDS_P1;SDS_P2;PMS_P1;PMS_P2;Temp;Humidity;BMP_temperature;BMP_pressure;BME280_temperature;BME280_humidity;BME280_pressure;Samples;Min_cycle;Max_cycle;Signal;HPM_P1;HPM_P2
2022/07/25 00:01:48;;;;;;;1098.23;999.90;;;25.60;99.90;;;;;;5006190;28;20487;-83
2022/07/25 00:04:15;;;;;;;1081.77;991.80;;;25.60;99.90;;;;;;5005901;28;20459;-82
2022/07/25 00:06:43;;;;;;;1087.80;995.87;;;25.50;99.90;;;;;;5002491;28;20446;-82
2022/07/25 00:09:10;;;;;;;1109.53;999.90;;;25.50;99.90;;;;;;4995414;28;20485;-83
2022/07/25 00:11:37;;;;;;;1110.93;999.90;;;25.50;99.90;;;;;;5007514;28;20495;-83
2022/07/25 00:14:04;;;;;;;1110.37;999.90;;;25.50;99.90;;;;;;5000617;28;20471;-83
2022/07/25 00:16:31;;;;;;;1104.93;999.90;;;25.50;99.90;;;;;;5000957;28;20490;-85
2022/07/25 00:18:58;;;;;;;1103.97;999.90;;;25.50;99.90;;;;;;5004957;28;20856;-83
2022/07/25 00:21:25;;;;;;;1109.03;999.90;;;25.40;99.90;;;;;;5009016;28;20461;-83
2022/07/25 00:23:53;;;;;;;1105.07;999.90;;;25.40;99.90;;;;;;5008125;28;20534;-83
2022/07/25 00:26:20;;;;;;;1070.40;980.70;;;25.40;99.90;;;;;;5008177;28;20478;-83
2022/07/25 00:28:46;;;;;;;1081.53;991.33;;;25.40;99.90;;;;;;5005488;28;20535;-83
2022/07/25 00:31:13;;;;;;;1083.20;992.93;;;25.40;99.90;;;;;;5006029;28;20985;-83
2022/07/25 00:33:40;;;;;;;1078.77;988.47;;;25.40;99.90;;;;;;5007527;28;20463;-83
2022/07/25 00:36:07;;;;;;;1090.23;997.73;;;25.30;99.90;;;;;;5008680;28;21297;-83
2022/07/25 00:38:34;;;;;;;1089.77;997.13;;;25.30;99.90;;;;;;5011548;28;20479;-83
2022/07/25 00:41:03;;;;;;;1086.33;994.93;;;25.30;99.90;;;;;;5004260;28;20951;-83
2022/07/25 00:43:30;;;;;;;1088.23;996.30;;;25.30;99.90;;;;;;5007696;28;20975;-83
2022/07/25 00:45:57;;;;;;;1081.70;991.43;;;25.30;99.90;;;;;;5007791;28;20464;-83
2022/07/25 00:48:24;;;;;;;1089.57;997.37;;;25.30;99.90;;;;;;5006267;28;20459;-84
2022/07/25 00:50:51;;;;;;;1077.47;987.67;;;25.20;99.90;;;;;;5014100;28;20895;-83
2022/07/25 00:53:18;;;;;;;1075.80;985.80;;;25.20;99.90;;;;;;5012044;28;20454;-83
2022/07/25 00:55:45;;;;;;;1076.40;985.70;;;25.20;99.90;;;;;;5008796;28;20800;-83
2022/07/25 00:58:14;;;;;;;1086.83;995.47;;;25.20;99.90;;;;;;5001954;28;20975;-84
2022/07/25 01:00:41;;;;;;;1084.10;993.67;;;25.20;99.90;;;;;;4998181;28;20867;-84
2022/07/25 01:03:08;;;;;;;1089.67;997.43;;;25.10;99.90;;;;;;4996613;28;20880;-83
2022/07/25 01:05:35;;;;;;;1078.80;988.43;;;25.10;99.90;;;;;;4996940;28;20824;-83
2022/07/25 01:08:02;;;;;;;1075.77;985.57;;;25.10;99.90;;;;;;5004662;28;20459;-84
2022/07/25 01:10:30;;;;;;;1074.00;983.93;;;25.10;99.90;;;;;;5012402;28;20780;-82
2022/07/25 01:12:56;;;;;;;1081.20;990.93;;;25.10;99.90;;;;;;5009715;28;20467;-84
2022/07/25 01:15:25;;;;;;;1080.93;990.67;;;25.10;99.90;;;;;;5011720;28;20446;-85
2022/07/25 01:17:52;;;;;;;1079.27;989.07;;;25.10;99.90;;;;;;5005396;28;20487;-84
2022/07/25 01:20:21;;;;;;;1088.13;995.63;;;25.00;99.90;;;;;;5002166;28;20463;-84
2022/07/25 01:22:48;;;;;;;1078.77;988.67;;;25.00;99.90;;;;;;5008817;28;20452;-83
2022/07/25 01:25:16;;;;;;;1074.90;984.93;;;25.00;99.90;;;;;;5006440;28;20451;-82
2022/07/25 01:27:43;;;;;;;1066.47;976.73;;;25.00;99.90;;;;;;5008697;28;20464;-85
2022/07/25 01:30:12;;;;;;;1089.20;996.90;;;25.00;99.90;;;;;;5000058;28;20463;-84
2022/07/25 01:32:39;;;;;;;1068.90;979.13;;;25.00;99.90;;;;;;5003927;28;20870;-84
2022/07/25 01:35:08;;;;;;;1079.33;989.13;;;24.90;99.90;;;;;;5003162;28;20456;-83
2022/07/25 01:37:37;;;;;;;1071.93;981.83;;;24.90;99.90;;;;;;5009866;28;20517;-83
2022/07/25 01:40:05;;;;;;;1077.20;986.83;;;24.90;99.90;;;;;;5003630;28;20554;-84
2022/07/25 01:42:32;;;;;;;1077.93;987.73;;;24.90;99.90;;;;;;5003221;28;20440;-84
2022/07/25 01:44:59;;;;;;;1070.13;979.93;;;24.90;99.90;;;;;;5006013;28;20428;-83
2022/07/25 01:47:26;;;;;;;1080.40;989.93;;;24.90;99.90;;;;;;5009467;28;20455;-83
2022/07/25 01:49:53;;;;;;;1070.53;980.60;;;24.80;99.90;;;;;;5009380;28;20980;-84
2022/07/25 01:52:20;;;;;;;1076.70;986.63;;;24.80;99.90;;;;;;5006246;28;20467;-83
2022/07/25 01:54:48;;;;;;;1077.07;986.77;;;24.80;99.90;;;;;;5002177;28;20459;-84
2022/07/25 01:57:14;;;;;;;1076.73;986.33;;;24.80;99.90;;;;;;5010200;28;20950;-84
2022/07/25 01:59:41;;;;;;;1064.73;975.00;;;24.80;99.90;;;;;;5000131;28;20453;-83
2022/07/25 02:02:09;;;;;;;1072.97;982.77;;;24.80;99.90;;;;;;5008338;28;20894;-83
2022/07/25 02:04:36;;;;;;;1063.87;973.97;;;24.70;99.90;;;;;;5008591;28;20470;-84
2022/07/25 02:07:03;;;;;;;1058.17;968.80;;;24.70;99.90;;;;;;5012183;28;20478;-83
2022/07/25 02:09:30;;;;;;;1081.67;991.27;;;24.70;99.90;;;;;;5005294;28;20557;-84
2022/07/25 02:11:58;;;;;;;1066.20;976.58;;;24.70;99.90;;;;;;5008411;28;20698;-85
2022/07/25 02:14:25;;;;;;;1054.60;965.13;;;24.70;99.90;;;;;;5009753;28;20204;-83
2022/07/25 02:16:52;;;;;;;1061.60;972.20;;;24.60;99.90;;;;;;5003088;28;20486;-84
2022/07/25 02:19:19;;;;;;;1058.63;969.23;;;24.60;99.90;;;;;;5006684;28;20898;-84
2022/07/25 02:21:46;;;;;;;1065.40;975.63;;;24.60;99.90;;;;;;5000691;28;20558;-84
2022/07/25 02:24:12;;;;;;;1045.77;956.87;;;24.60;99.90;;;;;;5007339;28;20459;-83
2022/07/25 02:26:39;;;;;;;1071.30;981.43;;;24.60;99.90;;;;;;5004563;28;20949;-84
2022/07/25 02:29:07;;;;;;;1057.90;968.28;;;24.60;99.90;;;;;;5005153;28;20465;-84
2022/07/25 02:31:34;;;;;;;1060.33;970.93;;;24.60;99.90;;;;;;5001439;28;20195;-84
2022/07/25 02:34:01;;;;;;;1064.15;974.50;;;24.50;99.90;;;;;;5005346;28;20962;-89
2022/07/25 02:36:28;;;;;;;1060.87;971.20;;;24.50;99.90;;;;;;5010484;28;20219;-89
2022/07/25 02:38:55;;;;;;;1063.97;974.33;;;24.50;99.90;;;;;;5006549;28;20897;-89
2022/07/25 02:41:22;;;;;;;1064.88;974.78;;;24.50;99.90;;;;;;5008419;28;20224;-89
2022/07/25 02:43:49;;;;;;;1054.43;965.00;;;24.50;99.90;;;;;;5007001;28;20210;-90
2022/07/25 02:46:17;;;;;;;1056.67;967.40;;;24.50;99.90;;;;;;5004530;28;20498;-89
2022/07/25 02:48:44;;;;;;;1058.17;968.77;;;24.50;99.90;;;;;;5006941;28;20434;-89
2022/07/25 02:51:11;;;;;;;1068.38;978.50;;;24.40;99.90;;;;;;5002568;28;20453;-89
2022/07/25 02:53:38;;;;;;;1059.28;969.42;;;24.40;99.90;;;;;;5012247;28;20258;-88
2022/07/25 02:56:05;;;;;;;1061.57;971.65;;;24.40;99.90;;;;;;5006355;28;20196;-85
2022/07/25 02:58:32;;;;;;;1054.00;964.78;;;24.40;99.90;;;;;;5003159;28;20223;-88
2022/07/25 03:00:59;;;;;;;1073.80;983.88;;;24.40;99.90;;;;;;5007782;28;20192;-88
2022/07/25 03:03:28;;;;;;;1065.38;975.55;;;24.30;99.90;;;;;;5007778;28;20230;-90
2022/07/25 03:05:55;;;;;;;1057.50;968.38;;;24.30;99.90;;;;;;5008767;28;20200;-88
2022/07/25 03:08:21;;;;;;;1068.80;979.33;;;24.30;99.90;;;;;;5007947;28;20192;-89
2022/07/25 03:10:48;;;;;;;1056.50;967.10;;;24.30;99.90;;;;;;5008043;28;20768;-88
2022/07/25 03:13:15;;;;;;;1050.33;961.27;;;24.30;99.90;;;;;;5005025;28;20198;-89
2022/07/25 03:15:42;;;;;;;1054.75;965.53;;;24.30;99.90;;;;;;5005758;28;20470;-88
2022/07/25 03:18:08;;;;;;;1058.38;968.85;;;24.20;99.90;;;;;;5006346;28;20680;-87
2022/07/25 03:20:37;;;;;;;1048.33;959.33;;;24.20;99.90;;;;;;5002375;28;20730;-88
2022/07/25 03:23:04;;;;;;;1054.57;965.37;;;24.20;99.90;;;;;;5002407;28;20471;-88
2022/07/25 03:25:31;;;;;;;1062.55;972.78;;;24.20;99.90;;;;;;5005018;28;20443;-89
2022/07/25 03:27:57;;;;;;;1057.03;967.57;;;24.20;99.90;;;;;;5010857;28;20205;-89
2022/07/25 03:30:24;;;;;;;1052.85;963.50;;;24.20;99.90;;;;;;5001344;28;20488;-89
2022/07/25 03:32:51;;;;;;;1049.53;960.17;;;24.20;99.90;;;;;;5004522;28;20192;-87
2022/07/25 03:35:18;;;;;;;1046.28;957.17;;;24.10;99.90;;;;;;5007570;28;20199;-86
2022/07/25 03:37:46;;;;;;;1052.50;963.07;;;24.10;99.90;;;;;;5001813;28;20652;-86
2022/07/25 03:40:14;;;;;;;1046.40;957.25;;;24.10;99.90;;;;;;5010251;28;20475;-90
2022/07/25 03:42:41;;;;;;;1049.38;960.33;;;24.10;99.90;;;;;;5009429;28;20258;-87
2022/07/25 03:45:09;;;;;;;1049.82;960.40;;;24.10;99.90;;;;;;5008605;28;20560;-89
2022/07/25 03:47:36;;;;;;;1055.70;966.30;;;24.10;99.90;;;;;;5009294;28;20207;-85
2022/07/25 03:50:02;;;;;;;1046.90;957.97;;;24.10;99.90;;;;;;4996687;28;20200;-85
2022/07/25 03:52:30;;;;;;;1054.43;965.05;;;24.10;99.90;;;;;;5000473;28;20271;-87
2022/07/25 03:54:58;;;;;;;1039.85;951.08;;;24.10;99.90;;;;;;4996349;28;20822;-88
2022/07/25 03:57:25;;;;;;;1027.65;939.42;;;24.00;99.90;;;;;;5005466;28;20201;-89
2022/07/25 03:59:51;;;;;;;1052.05;962.85;;;24.00;99.90;;;;;;5010117;28;20226;-89
2022/07/25 04:02:18;;;;;;;1060.32;970.47;;;24.00;99.90;;;;;;4999917;28;20659;-87
2022/07/25 04:04:45;;;;;;;1045.95;957.03;;;24.00;99.90;;;;;;5010323;28;20231;-88
2022/07/25 04:07:12;;;;;;;1039.20;950.45;;;23.90;99.90;;;;;;4998766;28;20208;-89
2022/07/25 04:09:39;;;;;;;1029.00;940.63;;;23.90;99.90;;;;;;5005746;28;20656;-88
2022/07/25 04:12:07;;;;;;;1039.28;950.78;;;23.90;99.90;;;;;;5002497;28;20411;-88
2022/07/25 04:14:34;;;;;;;1042.53;953.60;;;23.90;99.90;;;;;;5009024;28;20204;-85
2022/07/25 04:17:01;;;;;;;1034.53;945.60;;;23.90;99.90;;;;;;5003666;28;20205;-87
2022/07/25 04:19:28;;;;;;;1035.18;946.65;;;23.90;99.90;;;;;;4999473;28;20231;-84
2022/07/25 04:21:54;;;;;;;1042.70;953.78;;;23.90;99.90;;;;;;5007229;28;20211;-88
2022/07/25 04:24:21;;;;;;;1031.35;942.60;;;23.90;99.90;;;;;;5005359;28;20567;-86
2022/07/25 04:26:48;;;;;;;1033.90;945.30;;;23.90;99.90;;;;;;5013166;28;20339;-88
2022/07/25 04:29:16;;;;;;;1042.00;953.20;;;23.80;99.90;;;;;;5012961;28;20219;-86
2022/07/25 04:31:43;;;;;;;1038.35;949.88;;;23.80;99.90;;;;;;5009986;28;20703;-88
2022/07/25 04:34:10;;;;;;;1027.25;939.15;;;23.80;99.90;;;;;;5010286;28;20197;-89
2022/07/25 04:36:36;;;;;;;1030.60;942.00;;;23.80;99.90;;;;;;5010768;28;20216;-85
2022/07/25 04:39:04;;;;;;;1042.97;954.20;;;23.80;99.90;;;;;;5006278;28;20314;-89
2022/07/25 04:41:30;;;;;;;1030.85;942.42;;;23.80;99.90;;;;;;5009719;28;20678;-88
2022/07/25 04:43:57;;;;;;;1039.00;950.28;;;23.80;99.90;;;;;;5003802;28;20211;-87
2022/07/25 04:46:26;;;;;;;1036.43;947.72;;;23.80;99.90;;;;;;5010377;28;20420;-84
2022/07/25 04:48:53;;;;;;;1044.40;955.50;;;23.80;99.90;;;;;;5008759;28;20668;-87
2022/07/25 04:51:20;;;;;;;1041.55;952.58;;;23.80;99.90;;;;;;5014035;28;20227;-89
2022/07/25 04:53:46;;;;;;;1028.43;940.28;;;23.80;99.90;;;;;;5014371;28;20197;-84
2022/07/25 04:56:13;;;;;;;1032.15;943.65;;;23.80;99.90;;;;;;5013042;28;20290;-87
2022/07/25 04:58:40;;;;;;;1032.68;944.08;;;23.70;99.90;;;;;;5010934;28;20687;-89
2022/07/25 05:01:07;;;;;;;1038.72;949.80;;;23.80;99.90;;;;;;5004458;28;20227;-86
2022/07/25 05:03:35;;;;;;;1024.80;936.53;;;23.80;99.90;;;;;;5008574;28;20701;-86
2022/07/25 05:06:02;;;;;;;1026.82;938.45;;;23.80;99.90;;;;;;5008028;28;20197;-87
2022/07/25 05:08:29;;;;;;;1027.38;938.95;;;23.80;99.90;;;;;;5004098;28;20204;-88
2022/07/25 05:10:56;;;;;;;1033.18;944.75;;;23.80;99.90;;;;;;5009736;28;20196;-90
2022/07/25 05:13:23;;;;;;;1019.47;931.60;;;23.80;99.90;;;;;;5008940;28;20197;-88
2022/07/25 05:15:50;;;;;;;1016.72;928.50;;;23.80;99.90;;;;;;5006272;28;20255;-89
2022/07/25 05:18:17;;;;;;;1033.28;944.83;;;23.80;99.90;;;;;;5011619;28;20773;-89
2022/07/25 05:20:45;;;;;;;1026.93;939.08;;;23.80;99.90;;;;;;5005287;28;20627;-90
2022/07/25 05:23:12;;;;;;;1024.97;936.70;;;23.90;99.90;;;;;;5003640;28;20291;-91
2022/07/25 05:25:39;;;;;;;1037.13;948.47;;;23.90;99.90;;;;;;5009406;28;20207;-91
2022/07/25 05:28:06;;;;;;;1032.10;943.78;;;23.90;99.90;;;;;;5010925;28;20217;-91
2022/07/25 05:30:32;;;;;;;1032.50;944.03;;;23.90;99.90;;;;;;5008581;28;20671;-91
2022/07/25 05:32:59;;;;;;;1030.85;942.65;;;23.90;99.90;;;;;;5004242;28;20251;-87
2022/07/25 05:35:26;;;;;;;1041.95;953.85;;;23.90;99.90;;;;;;5012225;28;20196;-87
2022/07/25 05:37:55;;;;;;;1035.63;947.08;;;23.90;99.90;;;;;;5011979;28;20412;-88
2022/07/25 05:40:22;;;;;;;1030.60;942.25;;;23.90;99.90;;;;;;5009546;28;20251;-88
2022/07/25 05:42:48;;;;;;;1040.85;952.13;;;24.00;99.90;;;;;;5006095;28;20226;-89
2022/07/25 05:45:15;;;;;;;1032.63;944.23;;;24.10;99.90;;;;;;5009229;28;20196;-89
2022/07/25 05:47:42;;;;;;;1043.43;954.55;;;24.20;99.90;;;;;;5008500;28;20549;-88
2022/07/25 05:50:09;;;;;;;1055.70;966.55;;;24.30;99.90;;;;;;5005757;28;20201;-87
2022/07/25 05:52:36;;;;;;;1043.60;955.00;;;24.40;99.90;;;;;;5002844;28;20546;-88
2022/07/25 05:55:05;;;;;;;1052.00;962.97;;;24.60;99.90;;;;;;5006171;28;20436;-82
2022/07/25 05:57:32;;;;;;;1041.93;953.67;;;24.60;99.90;;;;;;5007610;28;20552;-83
2022/07/25 05:59:58;;;;;;;1059.13;970.33;;;24.60;99.90;;;;;;5012746;28;20480;-84
2022/07/25 06:02:25;;;;;;;1045.77;957.07;;;24.70;99.90;;;;;;5012556;28;20491;-83
2022/07/25 06:04:52;;;;;;;1075.10;984.93;;;24.80;99.90;;;;;;5011621;28;20463;-83
2022/07/25 06:07:18;;;;;;;1075.20;986.30;;;24.90;99.90;;;;;;5010025;28;21030;-83
2022/07/25 06:09:45;;;;;;;1090.30;998.80;;;25.00;99.90;;;;;;5009163;28;20455;-83
2022/07/25 06:12:13;;;;;;;1072.13;982.07;;;25.10;99.90;;;;;;5009007;28;20958;-82
2022/07/25 06:14:40;;;;;;;1059.13;969.73;;;25.20;99.90;;;;;;5023154;28;20455;-84
2022/07/25 06:17:07;;;;;;;1074.10;984.73;;;25.20;99.90;;;;;;4999584;28;20512;-84
2022/07/25 06:19:34;;;;;;;1074.10;984.43;;;25.20;99.90;;;;;;5011958;28;20479;-83
2022/07/25 06:22:01;;;;;;;1085.33;993.93;;;25.30;99.90;;;;;;5004984;28;20463;-83
2022/07/25 06:24:27;;;;;;;1090.20;998.60;;;25.30;99.90;;;;;;5005648;28;20467;-84
2022/07/25 06:26:54;;;;;;;1071.53;981.93;;;25.40;99.90;;;;;;5010804;28;20473;-84
2022/07/25 06:29:22;;;;;;;1077.87;988.30;;;25.50;99.90;;;;;;5008427;28;20434;-83
2022/07/25 06:31:49;;;;;;;1095.13;998.50;;;25.50;99.90;;;;;;5004263;28;20452;-83
2022/07/25 06:34:16;;;;;;;1064.90;976.20;;;25.60;99.90;;;;;;5006814;28;20934;-84
2022/07/25 06:36:42;;;;;;;1074.07;985.00;;;25.70;99.90;;;;;;5010279;28;20539;-83
2022/07/25 06:39:09;;;;;;;1074.70;984.60;;;25.70;99.90;;;;;;5001003;28;20477;-84
2022/07/25 06:41:36;;;;;;;1092.83;998.50;;;25.70;99.90;;;;;;5010365;28;20819;-84
2022/07/25 06:44:03;;;;;;;1088.53;996.77;;;25.70;99.90;;;;;;5006852;28;20471;-85
2022/07/25 06:46:31;;;;;;;1090.13;997.67;;;25.60;99.90;;;;;;5002468;28;20466;-83
2022/07/25 06:48:59;;;;;;;1083.90;993.43;;;25.50;99.90;;;;;;5004826;28;20998;-80
2022/07/25 06:51:26;;;;;;;1084.73;994.13;;;25.50;99.90;;;;;;5001321;28;20451;-80
2022/07/25 06:53:53;;;;;;;1090.30;997.73;;;25.50;99.90;;;;;;5006101;28;20454;-80
2022/07/25 06:56:21;;;;;;;1083.43;993.23;;;25.40;99.90;;;;;;5000065;28;20463;-79
2022/07/25 06:58:48;;;;;;;1098.10;999.90;;;25.40;99.90;;;;;;4998632;28;20484;-80
2022/07/25 07:01:14;;;;;;;1088.07;996.23;;;25.40;99.90;;;;;;5004899;28;20572;-80
2022/07/25 07:03:43;;;;;;;1077.33;987.43;;;25.40;99.90;;;;;;4998699;28;20835;-79
2022/07/25 07:06:09;;;;;;;1090.03;997.10;;;25.60;99.90;;;;;;5006082;28;20890;-80
2022/07/25 07:08:37;;;;;;;1098.90;999.90;;;25.70;99.90;;;;;;5008154;28;20448;-79
2022/07/25 07:11:04;;;;;;;1100.40;999.90;;;25.90;99.90;;;;;;4995944;28;20443;-81
2022/07/25 07:13:30;;;;;;;1102.90;999.90;;;26.10;99.90;;;;;;5005008;28;20459;-80
2022/07/25 07:15:57;;;;;;;1104.77;999.90;;;26.20;99.90;;;;;;5006159;28;20463;-81
2022/07/25 07:18:24;;;;;;;1102.83;999.90;;;26.30;99.90;;;;;;5007020;28;20463;-80
2022/07/25 07:20:53;;;;;;;1112.57;999.90;;;26.50;99.90;;;;;;5002595;28;20487;-82
2022/07/25 07:23:20;;;;;;;1124.47;999.90;;;26.70;99.60;;;;;;5002850;28;20829;-83
2022/07/25 07:25:48;;;;;;;1119.17;999.90;;;26.80;99.20;;;;;;5005917;28;21165;-82
2022/07/25 07:28:15;;;;;;;1122.97;999.90;;;26.80;98.90;;;;;;5008605;28;20563;-80
2022/07/25 07:30:42;;;;;;;1128.83;999.90;;;26.90;98.70;;;;;;5004534;28;20455;-80
2022/07/25 07:33:09;;;;;;;1125.87;999.90;;;26.80;98.60;;;;;;5008812;28;20443;-79
2022/07/25 07:35:36;;;;;;;1122.50;999.90;;;26.70;98.60;;;;;;5003947;28;20439;-83
2022/07/25 07:38:04;;;;;;;1123.93;999.90;;;26.60;98.80;;;;;;5009355;28;20439;-80
2022/07/25 07:40:30;;;;;;;1121.13;999.90;;;26.60;99.00;;;;;;5004469;28;20481;-82
2022/07/25 07:43:01;;;;;;;1118.20;999.90;;;26.50;99.10;;;;;;5001963;28;20938;-82
2022/07/25 07:45:27;;;;;;;1117.30;999.90;;;26.40;99.30;;;;;;5008986;28;20459;-81
2022/07/25 07:47:55;;;;;;;1118.00;999.90;;;26.40;99.40;;;;;;5002347;28;20530;-79
2022/07/25 07:50:25;;;;;;;1103.67;999.90;;;26.40;99.50;;;;;;5007504;28;20542;-80
2022/07/25 07:52:54;;;;;;;1108.60;999.90;;;26.30;99.60;;;;;;5008100;28;20506;-79
2022/07/25 07:58:06;;;;;;;1115.37;999.90;;;26.20;99.90;;;;;;5006610;28;20534;-80
2022/07/25 08:00:35;;;;;;;1113.00;999.90;;;26.20;99.90;;;;;;5010059;28;20479;-81
2022/07/25 08:03:02;;;;;;;1109.93;999.90;;;26.10;99.90;;;;;;4997591;28;20574;-81
2022/07/25 08:05:31;;;;;;;1108.40;999.90;;;26.10;99.90;;;;;;5003386;28;20455;-81
2022/07/25 08:07:59;;;;;;;1106.40;999.90;;;26.00;99.90;;;;;;5009879;28;20460;-81
2022/07/25 08:10:30;;;;;;;1108.33;999.90;;;26.00;99.90;;;;;;5005548;28;20459;-80
2022/07/25 08:12:57;;;;;;;1114.63;999.90;;;25.90;99.90;;;;;;5006373;28;20495;-81
2022/07/25 08:15:25;;;;;;;1103.47;999.90;;;25.90;99.90;;;;;;5003782;28;20463;-82
2022/07/25 08:17:52;;;;;;;1108.80;999.90;;;26.00;99.90;;;;;;5005220;28;20463;-81
2022/07/25 08:20:21;;;;;;;1102.97;999.90;;;26.00;99.90;;;;;;5009772;28;20514;-82
2022/07/25 08:22:49;;;;;;;1093.77;998.47;;;26.00;99.90;;;;;;5010868;28;20541;-79
2022/07/25 08:25:19;;;;;;;1110.13;999.90;;;26.00;99.90;;;;;;5009606;28;20466;-80
2022/07/25 08:27:48;;;;;;;1109.97;999.90;;;26.00;99.90;;;;;;5006936;28;20459;-81
2022/07/25 08:30:16;;;;;;;1100.67;999.90;;;26.00;99.90;;;;;;5007107;28;20949;-81
2022/07/25 08:32:47;;;;;;;1103.13;999.90;;;26.00;99.90;;;;;;5005581;28;20465;-81
2022/07/25 08:35:14;;;;;;;1112.20;999.90;;;26.00;99.90;;;;;;5001048;28;20470;-82
2022/07/25 08:37:41;;;;;;;1113.23;999.90;;;26.10;99.90;;;;;;5010464;28;20455;-82
2022/07/25 08:40:09;;;;;;;1118.93;999.90;;;26.10;99.90;;;;;;5006583;28;20505;-80
2022/07/25 08:42:37;;;;;;;1105.40;999.90;;;26.10;99.90;;;;;;5012366;28;20485;-81
2022/07/25 08:45:07;;;;;;;1118.73;999.90;;;26.10;99.90;;;;;;5005582;28;20471;-81
2022/07/25 08:47:35;;;;;;;1104.73;999.90;;;26.10;99.90;;;;;;5007351;28;20470;-82
2022/07/25 08:50:04;;;;;;;1112.27;999.90;;;26.10;99.90;;;;;;5009774;28;20463;-82
2022/07/25 08:52:34;;;;;;;1107.10;999.90;;;26.10;99.90;;;;;;5006380;28;20484;-83
2022/07/25 08:55:01;;;;;;;1110.73;999.90;;;26.20;99.90;;;;;;5011608;28;20814;-81
2022/07/25 08:57:28;;;;;;;1114.47;999.90;;;26.20;99.80;;;;;;5004515;28;20459;-82
2022/07/25 08:59:57;;;;;;;1111.93;999.90;;;26.20;99.70;;;;;;5012281;28;20479;-80
2022/07/25 09:02:25;;;;;;;1122.27;999.90;;;26.30;99.60;;;;;;5011042;28;20471;-81
2022/07/25 09:04:52;;;;;;;1117.07;999.90;;;26.30;99.40;;;;;;5000576;28;20834;-80
2022/07/25 09:07:29;;;;;;;1113.90;999.90;;;26.40;99.30;;;;;;5012118;28;20459;-81
2022/07/25 09:09:57;;;;;;;1115.90;999.90;;;26.40;99.10;;;;;;5000704;28;20482;-80
2022/07/25 09:12:26;;;;;;;1128.10;999.90;;;26.50;98.70;;;;;;5000732;28;20474;-82
2022/07/25 09:14:54;;;;;;;1122.07;999.90;;;26.60;98.60;;;;;;5007534;28;20525;-83
2022/07/25 09:17:20;;;;;;;1131.47;999.90;;;26.70;98.40;;;;;;4997877;28;20463;-79
2022/07/25 09:19:53;;;;;;;1133.13;999.90;;;26.80;98.10;;;;;;5006019;28;20838;-78
2022/07/25 09:22:20;;;;;;;1137.07;999.90;;;26.80;97.70;;;;;;5007252;28;20456;-83
2022/07/25 09:24:49;;;;;;;1145.37;999.90;;;26.90;97.70;;;;;;4999313;28;21001;-82
2022/07/25 09:27:17;;;;;;;1140.00;999.90;;;26.90;97.60;;;;;;5010720;28;20470;-80
2022/07/25 09:29:44;;;;;;;1133.67;999.90;;;27.00;97.50;;;;;;4998254;28;20477;-82
2022/07/25 09:32:17;;;;;;;1143.07;999.90;;;27.00;97.20;;;;;;5007186;28;20973;-80
2022/07/25 09:34:48;;;;;;;1130.70;999.90;;;27.00;97.20;;;;;;5007190;28;20463;-82
2022/07/25 09:37:25;;;;;;;1130.37;999.90;;;27.00;97.20;;;;;;5000902;28;20966;-81
2022/07/25 09:39:53;;;;;;;1131.20;999.90;;;27.00;97.20;;;;;;5004148;28;20842;-79
2022/07/25 09:42:23;;;;;;;1137.83;999.90;;;27.00;97.30;;;;;;4995967;28;20498;-82
2022/07/25 09:45:06;;;;;;;1135.70;999.90;;;27.00;97.30;;;;;;4998587;28;20459;-81
2022/07/25 09:47:36;;;;;;;1139.93;999.90;;;27.00;97.10;;;;;;4998388;28;20460;-82
2022/07/25 09:50:08;;;;;;;1147.03;999.90;;;27.10;97.10;;;;;;5003966;28;21058;-80
2022/07/25 09:52:38;;;;;;;1138.33;999.90;;;27.10;96.70;;;;;;5003554;28;20832;-81
2022/07/25 09:55:08;;;;;;;1144.10;999.90;;;27.20;96.80;;;;;;4998447;28;20462;-81
2022/07/25 09:57:35;;;;;;;1135.40;999.90;;;27.20;96.80;;;;;;5008462;28;20452;-81
2022/07/25 10:00:02;;;;;;;1159.73;999.90;;;27.30;96.70;;;;;;5005633;28;20481;-81
2022/07/25 10:02:48;;;;;;;1154.40;999.90;;;27.30;96.30;;;;;;5005259;28;20484;-80
2022/07/25 10:05:19;;;;;;;1148.40;999.90;;;27.40;96.20;;;;;;5003076;28;20447;-81
2022/07/25 10:07:50;;;;;;;1151.07;999.90;;;27.50;96.00;;;;;;5001150;28;20455;-81
2022/07/25 10:10:23;;;;;;;1163.17;999.90;;;27.50;96.20;;;;;;4990770;28;20943;-79
2022/07/25 10:13:06;;;;;;;1158.17;999.90;;;27.60;95.80;;;;;;5003654;28;20439;-80
2022/07/25 10:15:47;;;;;;;1153.30;999.90;;;27.60;95.70;;;;;;5004248;28;20456;-82
2022/07/25 10:18:15;;;;;;;1144.00;999.90;;;27.70;95.70;;;;;;5001299;28;20460;-81
2022/07/25 10:20:43;;;;;;;1161.37;999.90;;;27.70;95.60;;;;;;5001388;28;20553;-82
2022/07/25 10:23:25;;;;;;;1155.70;999.90;;;27.70;95.50;;;;;;5002975;28;20812;-81
2022/07/25 10:26:07;;;;;;;1160.63;999.90;;;27.70;95.50;;;;;;4998881;28;20965;-78
2022/07/25 10:28:43;;;;;;;1152.87;999.90;;;27.70;95.50;;;;;;5009048;28;20451;-79
2022/07/25 10:31:23;;;;;;;1166.93;999.90;;;27.70;95.60;;;;;;5089754;27;20661;-78
2022/07/25 10:33:55;;;;;;;1152.47;999.90;;;27.70;95.50;;;;;;5073839;28;20820;-81
2022/07/25 10:36:24;;;;;;;1157.00;999.90;;;27.70;95.50;;;;;;5081835;28;20455;-79
2022/07/25 10:38:52;;;;;;;1150.03;999.90;;;27.70;95.60;;;;;;5087820;28;20428;-80
2022/07/25 10:41:24;;;;;;;1151.03;999.90;;;27.70;95.70;;;;;;5087439;28;20811;-81
2022/07/25 10:43:52;;;;;;;1142.60;999.90;;;27.70;95.60;;;;;;5076498;28;20452;-80
2022/07/25 10:46:22;;;;;;;1146.17;999.90;;;27.60;95.50;;;;;;5087382;28;20456;-81
2022/07/25 10:49:03;;;;;;;1149.97;999.90;;;27.60;95.50;;;;;;5083535;28;20458;-82
2022/07/25 10:51:32;;;;;;;1148.00;999.90;;;27.60;95.50;;;;;;5084313;28;20428;-80
2022/07/25 10:54:00;;;;;;;1147.97;999.90;;;27.60;95.60;;;;;;5083428;28;20517;-82
2022/07/25 10:56:28;;;;;;;1153.87;999.90;;;27.60;95.60;;;;;;5077990;28;20464;-80
2022/07/25 10:58:57;;;;;;;1148.20;999.90;;;27.50;95.60;;;;;;5084912;28;20459;-80
2022/07/25 11:01:28;;;;;;;1143.47;999.90;;;27.50;95.70;;;;;;5081822;28;20452;-80
2022/07/25 11:03:56;;;;;;;1144.33;999.90;;;27.40;95.70;;;;;;5072095;28;20448;-80
2022/07/25 11:06:33;;;;;;;1144.03;999.90;;;27.40;95.80;;;;;;5081215;28;20501;-79
2022/07/25 11:09:01;;;;;;;1131.37;999.90;;;27.30;95.90;;;;;;5086111;28;20459;-80
2022/07/25 11:11:40;;;;;;;1136.77;999.90;;;27.30;96.00;;;;;;5068598;28;20445;-77
2022/07/25 11:14:16;;;;;;;1119.07;999.90;;;27.30;96.10;;;;;;5081443;28;20424;-79
2022/07/25 11:16:45;;;;;;;1136.30;999.90;;;27.20;96.20;;;;;;5079182;28;20919;-79
2022/07/25 11:19:20;;;;;;;1122.03;999.90;;;27.30;96.30;;;;;;5076227;28;20925;-79
2022/07/25 11:21:49;;;;;;;1136.10;999.90;;;27.20;96.30;;;;;;5085582;28;20442;-78
2022/07/25 11:24:16;;;;;;;1140.13;999.90;;;27.20;96.30;;;;;;5083372;28;20464;-78
2022/07/25 11:26:48;;;;;;;1129.00;999.90;;;27.30;96.40;;;;;;5087418;28;20818;-81
2022/07/25 11:29:20;;;;;;;1139.47;999.90;;;27.30;96.40;;;;;;5071715;28;20464;-82
2022/07/25 11:31:58;;;;;;;1136.23;999.90;;;27.40;96.30;;;;;;5073582;28;21626;-84
2022/07/25 11:34:27;;;;;;;1142.93;999.90;;;27.40;96.20;;;;;;5078676;28;20460;-84
2022/07/25 11:36:56;;;;;;;1143.67;999.90;;;27.50;96.10;;;;;;5071581;28;20749;-84
2022/07/25 11:39:24;;;;;;;1128.80;999.90;;;27.50;96.10;;;;;;5068484;28;20439;-83
2022/07/25 11:42:02;;;;;;;1125.20;999.90;;;27.60;96.00;;;;;;5067042;28;20461;-83
2022/07/25 11:44:34;;;;;;;1148.93;999.90;;;27.60;95.80;;;;;;5068552;28;20951;-83
2022/07/25 11:47:03;;;;;;;1136.83;999.90;;;27.60;95.70;;;;;;5060265;28;20449;-82
2022/07/25 11:49:30;;;;;;;1147.30;999.90;;;27.70;95.80;;;;;;5065129;28;20472;-85
2022/07/25 11:51:57;;;;;;;1136.83;999.90;;;27.70;95.80;;;;;;5069675;28;20460;-82
2022/07/25 11:54:24;;;;;;;1145.63;999.90;;;27.70;95.80;;;;;;5071592;28;20571;-85
2022/07/25 11:56:51;;;;;;;1140.33;999.90;;;27.60;95.80;;;;;;5065551;28;20950;-83
2022/07/25 11:59:17;;;;;;;1136.77;999.90;;;27.70;95.80;;;;;;5066273;28;20437;-84
2022/07/25 12:01:46;;;;;;;1137.27;999.90;;;27.70;95.80;;;;;;5061123;28;20591;-84
2022/07/25 12:04:15;;;;;;;1138.67;999.90;;;27.70;95.90;;;;;;5064897;28;20861;-82
2022/07/25 12:06:44;;;;;;;1148.30;999.90;;;27.70;95.90;;;;;;5071373;28;20437;-84